Plaza, Washington
Current Conditions -  °F | °C
As of 12:53 AM on Monday 20 Oct 2014 (Local Time) from KGEG Reporting Station
Clear Clear  
Wind Chill: 11°   Ceiling: Unl
Heat Index: 11°   Visibility: 10mi
Dew Point:   Wind: 5mph
Humidity: 83%   Direction: 70°ENE
Pressure: 29.76"   Gusts: NA
Location:  47.2196°N, 117.453°W
Report Text: KGEG 200753Z 07004KT 10SM CLR 11/08 A2976 RMK AO2 SLP073 T01110083 402060083
Loading
Personal Weather Stations






























Interactive Weather Map
Tropical Storm Tracking
New forecast layout! Learn more

10-Day Weather Forecast

Advertisements
Track Severe Weather on mobile